Time;durP1;ratioP1;P1;durP2;ratioP2;P2;SDS_P1;SDS_P2;PMS_P1;PMS_P2;Temp;Humidity;BMP_temperature;BMP_pressure;BME280_temperature;BME280_humidity;BME280_pressure;Samples;Min_cycle;Max_cycle;Signal;HPM_P1;HPM_P2
2021/05/12 00:01:04;;;;;;;0.00;0.00;;;15.70;99.90;;;;;;6213060;23;20490;-75
2021/05/12 00:03:29;;;;;;;0.00;0.00;;;15.70;99.90;;;;;;6212860;23;20329;-75
2021/05/12 00:05:57;;;;;;;0.00;0.00;;;15.70;99.90;;;;;;6213215;23;20008;-75
2021/05/12 00:08:24;;;;;;;0.00;0.00;;;15.70;99.90;;;;;;6213179;23;20035;-75
2021/05/12 00:10:49;;;;;;;0.00;0.00;;;15.70;99.90;;;;;;6213268;23;20000;-76
2021/05/12 00:13:15;;;;;;;0.00;0.00;;;15.60;99.90;;;;;;6186492;23;20019;-76
2021/05/12 00:15:41;;;;;;;0.00;0.00;;;15.60;99.90;;;;;;6212892;23;20046;-76
2021/05/12 00:18:12;;;;;;;0.00;0.00;;;15.60;99.90;;;;;;6213396;23;20033;-75
2021/05/12 00:20:39;;;;;;;0.00;0.00;;;15.60;99.90;;;;;;6212713;23;20020;-75
2021/05/12 00:23:09;;;;;;;0.00;0.00;;;15.60;99.90;;;;;;6213285;23;20051;-75
2021/05/12 00:25:35;;;;;;;0.00;0.00;;;15.60;99.90;;;;;;6213030;23;19989;-76
2021/05/12 00:28:01;;;;;;;0.00;0.00;;;15.50;99.90;;;;;;6213207;23;20007;-76
2021/05/12 00:30:26;;;;;;;0.00;0.00;;;15.60;99.90;;;;;;6212782;23;20427;-76
2021/05/12 00:32:53;;;;;;;0.00;0.00;;;15.60;99.90;;;;;;6213014;23;20020;-75
2021/05/12 00:35:19;;;;;;;0.10;0.10;;;15.70;99.90;;;;;;6212836;23;20037;-76
2021/05/12 00:37:45;;;;;;;0.00;0.00;;;15.70;99.90;;;;;;6213227;23;20005;-76
2021/05/12 00:40:13;;;;;;;0.00;0.00;;;15.70;99.90;;;;;;6213065;23;20001;-76
2021/05/12 00:42:39;;;;;;;0.00;0.00;;;15.70;99.90;;;;;;6213050;23;20080;-76
2021/05/12 00:45:07;;;;;;;0.00;0.00;;;15.70;99.90;;;;;;6212895;23;20487;-76
2021/05/12 00:47:33;;;;;;;0.00;0.00;;;15.60;99.90;;;;;;6213007;23;20028;-75
2021/05/12 00:50:00;;;;;;;0.00;0.00;;;15.70;99.90;;;;;;6212813;23;19997;-76
2021/05/12 00:52:26;;;;;;;0.00;0.00;;;15.60;99.90;;;;;;6212686;23;20036;-75
2021/05/12 00:54:53;;;;;;;0.00;0.00;;;15.60;99.90;;;;;;6212893;23;20078;-76
2021/05/12 00:57:19;;;;;;;0.00;0.00;;;15.60;99.90;;;;;;6213453;23;20007;-75
2021/05/12 00:59:46;;;;;;;0.10;0.10;;;15.50;99.90;;;;;;6188275;23;20047;-76
2021/05/12 01:02:14;;;;;;;0.10;0.10;;;15.50;99.90;;;;;;6213022;23;20052;-75
2021/05/12 01:04:40;;;;;;;0.00;0.00;;;15.60;99.90;;;;;;6214797;23;20372;-76
2021/05/12 01:07:06;;;;;;;0.00;0.00;;;15.70;99.90;;;;;;6214973;23;20011;-76
2021/05/12 01:09:32;;;;;;;0.00;0.00;;;15.70;99.90;;;;;;6214402;23;20005;-75
2021/05/12 01:11:58;;;;;;;0.00;0.00;;;15.70;99.90;;;;;;6213110;23;20008;-76
2021/05/12 01:14:25;;;;;;;0.00;0.00;;;15.80;99.90;;;;;;6214329;23;20009;-77
2021/05/12 01:16:51;;;;;;;0.10;0.10;;;15.80;99.90;;;;;;6214868;23;20050;-77
2021/05/12 01:19:18;;;;;;;0.00;0.00;;;15.80;99.90;;;;;;6214359;23;20059;-76
2021/05/12 01:21:44;;;;;;;0.10;0.10;;;15.80;99.90;;;;;;6214710;23;20051;-76
2021/05/12 01:24:10;;;;;;;0.10;0.10;;;15.80;99.90;;;;;;6214727;23;20008;-76
2021/05/12 01:26:36;;;;;;;0.00;0.00;;;15.90;99.90;;;;;;6214641;23;19997;-76
2021/05/12 01:29:03;;;;;;;0.00;0.00;;;15.90;99.90;;;;;;6214542;23;20228;-76
2021/05/12 01:31:52;;;;;;;0.00;0.00;;;16.00;99.90;;;;;;6214185;23;20474;-76
2021/05/12 01:34:19;;;;;;;0.10;0.10;;;15.90;99.90;;;;;;6212727;23;20095;-76
2021/05/12 01:36:47;;;;;;;0.00;0.00;;;15.80;99.90;;;;;;6212756;23;20013;-76
2021/05/12 01:39:14;;;;;;;0.00;0.00;;;15.70;99.90;;;;;;6214025;23;20004;-76
2021/05/12 01:41:40;;;;;;;0.00;0.00;;;15.70;99.90;;;;;;6214346;23;20032;-76
2021/05/12 01:44:11;;;;;;;0.00;0.00;;;15.60;99.90;;;;;;6212903;23;20058;-76
2021/05/12 01:46:42;;;;;;;0.00;0.00;;;15.60;99.90;;;;;;6214643;23;20027;-76
2021/05/12 01:49:09;;;;;;;0.00;0.00;;;15.60;99.90;;;;;;6212418;23;20004;-76
2021/05/12 01:51:35;;;;;;;0.00;0.00;;;15.60;99.90;;;;;;6214457;23;20012;-76
2021/05/12 01:54:02;;;;;;;0.00;0.00;;;15.70;99.90;;;;;;6214142;23;20067;-76
2021/05/12 01:56:28;;;;;;;0.00;0.00;;;15.60;99.90;;;;;;6214479;23;20004;-76
2021/05/12 01:58:53;;;;;;;0.00;0.00;;;15.60;99.90;;;;;;6213990;23;20139;-76
2021/05/12 02:01:19;;;;;;;0.00;0.00;;;15.50;99.90;;;;;;6214293;23;19997;-76
2021/05/12 02:03:45;;;;;;;0.10;0.10;;;15.50;99.90;;;;;;6214155;23;20005;-76
2021/05/12 02:06:11;;;;;;;0.10;0.10;;;15.50;99.90;;;;;;6214088;23;20601;-76
2021/05/12 02:08:36;;;;;;;0.00;0.00;;;15.40;99.90;;;;;;6214179;23;20000;-76
2021/05/12 02:11:04;;;;;;;0.00;0.00;;;15.50;99.90;;;;;;6187457;23;20008;-76
2021/05/12 02:13:31;;;;;;;0.05;0.05;;;15.50;99.90;;;;;;6214025;23;20032;-76
2021/05/12 02:15:58;;;;;;;0.00;0.00;;;15.50;99.90;;;;;;6214208;23;20000;-75
2021/05/12 02:18:24;;;;;;;0.00;0.00;;;15.50;99.90;;;;;;6214021;23;20004;-75
2021/05/12 02:20:50;;;;;;;0.00;0.00;;;15.60;99.90;;;;;;6187412;23;20428;-75
2021/05/12 02:23:18;;;;;;;0.00;0.00;;;15.60;99.90;;;;;;6213856;23;19998;-74
2021/05/12 02:25:44;;;;;;;0.00;0.00;;;15.60;99.90;;;;;;6214043;23;20004;-75
2021/05/12 02:28:11;;;;;;;0.00;0.00;;;15.50;99.90;;;;;;6214141;23;20001;-75
2021/05/12 02:30:38;;;;;;;0.00;0.00;;;15.50;99.90;;;;;;6213737;23;20001;-75
2021/05/12 02:33:05;;;;;;;0.00;0.00;;;15.50;99.90;;;;;;6213687;23;20013;-75
2021/05/12 02:35:31;;;;;;;;;;;15.50;99.90;;;;;;6214087;23;20008;-75
2021/05/12 02:37:57;;;;;;;0.00;0.00;;;15.50;99.90;;;;;;6214036;23;19979;-74
2021/05/12 02:40:24;;;;;;;0.00;0.00;;;15.50;99.90;;;;;;6213610;23;20009;-75
2021/05/12 02:42:52;;;;;;;0.00;0.00;;;15.60;99.90;;;;;;6214021;23;20335;-75
2021/05/12 02:45:18;;;;;;;0.00;0.00;;;15.70;99.90;;;;;;6213278;23;20008;-75
2021/05/12 02:47:57;;;;;;;0.00;0.00;;;15.70;99.90;;;;;;6213898;23;20023;-75
2021/05/12 02:50:33;;;;;;;0.00;0.00;;;15.70;99.90;;;;;;6213449;23;20005;-75
2021/05/12 02:53:01;;;;;;;0.00;0.00;;;15.70;99.90;;;;;;6213642;23;20013;-75
2021/05/12 02:55:27;;;;;;;;;;;15.80;99.90;;;;;;6212528;23;20005;-75
2021/05/12 02:57:53;;;;;;;0.05;0.05;;;15.80;99.90;;;;;;6213623;23;19900;-74
2021/05/12 03:00:21;;;;;;;0.00;0.00;;;15.90;99.90;;;;;;6213645;23;20305;-75
2021/05/12 03:02:47;;;;;;;0.00;0.00;;;15.90;99.90;;;;;;6213587;23;20005;-74
2021/05/12 03:05:14;;;;;;;0.00;0.00;;;16.00;99.90;;;;;;6213350;23;20043;-74
2021/05/12 03:07:40;;;;;;;0.00;0.00;;;16.00;99.90;;;;;;6213867;23;20428;-75
2021/05/12 03:10:09;;;;;;;0.00;0.00;;;15.80;99.90;;;;;;6186786;23;20012;-76
2021/05/12 03:12:35;;;;;;;0.00;0.00;;;15.60;99.90;;;;;;6213502;23;20016;-75
2021/05/12 03:15:00;;;;;;;0.00;0.00;;;15.50;99.90;;;;;;6213219;23;20012;-75
2021/05/12 03:17:26;;;;;;;0.10;0.10;;;15.30;99.90;;;;;;6213489;23;20004;-75
2021/05/12 03:19:52;;;;;;;0.10;0.10;;;15.10;99.90;;;;;;6212849;23;20083;-75
2021/05/12 03:22:18;;;;;;;0.10;0.10;;;15.00;99.90;;;;;;6211828;23;20005;-76
2021/05/12 03:24:43;;;;;;;0.10;0.10;;;14.90;99.90;;;;;;6213382;23;20344;-76
2021/05/12 03:27:09;;;;;;;0.03;0.03;;;14.80;99.90;;;;;;6213498;23;19992;-76
2021/05/12 03:29:35;;;;;;;0.10;0.10;;;14.70;99.90;;;;;;6213232;23;20004;-75
2021/05/12 03:32:01;;;;;;;0.10;0.10;;;14.70;99.90;;;;;;6213347;23;20009;-75
2021/05/12 03:34:26;;;;;;;0.10;0.10;;;14.60;99.90;;;;;;6213117;23;19997;-74
2021/05/12 03:36:52;;;;;;;0.10;0.10;;;14.60;99.90;;;;;;6212634;23;20112;-74
2021/05/12 03:39:18;;;;;;;0.03;0.03;;;14.60;99.90;;;;;;6210919;23;20088;-75
2021/05/12 03:41:43;;;;;;;0.00;0.00;;;14.60;99.90;;;;;;6213253;23;20003;-75
2021/05/12 03:44:10;;;;;;;0.10;0.10;;;14.60;99.90;;;;;;6213326;23;20727;-76
2021/05/12 03:46:36;;;;;;;;;;;14.60;99.90;;;;;;6212045;23;20320;-75
2021/05/12 03:49:02;;;;;;;0.00;0.00;;;14.60;99.90;;;;;;6213270;23;19900;-74
2021/05/12 03:51:28;;;;;;;0.00;0.00;;;14.70;99.90;;;;;;6213084;23;20004;-75
2021/05/12 03:53:54;;;;;;;0.00;0.00;;;14.70;99.90;;;;;;6213172;23;20084;-74
2021/05/12 03:56:19;;;;;;;0.00;0.00;;;14.80;99.90;;;;;;6213199;23;20373;-74
2021/05/12 03:58:45;;;;;;;0.08;0.08;;;14.80;99.90;;;;;;6186238;23;20011;-74
2021/05/12 04:01:10;;;;;;;0.00;0.00;;;14.80;99.90;;;;;;6213039;23;20001;-74
2021/05/12 04:03:36;;;;;;;0.10;0.10;;;14.70;99.90;;;;;;6212902;23;20001;-74
2021/05/12 04:06:02;;;;;;;0.00;0.00;;;14.60;99.90;;;;;;6213322;23;20564;-74
2021/05/12 04:08:27;;;;;;;0.00;0.00;;;14.60;99.90;;;;;;6213346;23;20001;-74
2021/05/12 04:10:53;;;;;;;0.10;0.10;;;14.50;99.90;;;;;;6213047;23;20004;-74
2021/05/12 04:13:20;;;;;;;0.00;0.00;;;14.50;99.90;;;;;;6213175;23;20088;-74
2021/05/12 04:15:46;;;;;;;0.00;0.00;;;14.50;99.90;;;;;;6211475;23;20004;-74
2021/05/12 04:18:11;;;;;;;0.00;0.00;;;14.60;99.90;;;;;;6212740;23;20005;-74
2021/05/12 04:20:37;;;;;;;0.00;0.00;;;14.60;99.90;;;;;;6212265;23;20447;-74
2021/05/12 04:23:03;;;;;;;0.00;0.00;;;14.70;99.90;;;;;;6213023;23;20009;-74
2021/05/12 04:25:30;;;;;;;0.00;0.00;;;14.70;99.90;;;;;;6212829;23;19992;-75
2021/05/12 04:27:56;;;;;;;0.00;0.00;;;14.70;99.90;;;;;;6213122;23;20459;-75
2021/05/12 04:30:22;;;;;;;0.00;0.00;;;14.70;99.90;;;;;;6211106;23;20080;-75
2021/05/12 04:32:49;;;;;;;0.00;0.00;;;14.60;99.90;;;;;;6213087;23;20051;-74
2021/05/12 04:35:18;;;;;;;;;;;14.60;99.90;;;;;;6213853;23;20039;-75
2021/05/12 04:37:45;;;;;;;0.00;0.00;;;14.70;99.90;;;;;;6215162;23;19946;-74
2021/05/12 05:24:19;;;;;;;0.00;0.00;;;14.80;99.90;;;;;;6193619;22;861833;-76
2021/05/12 05:26:44;;;;;;;0.00;0.00;;;15.20;99.90;;;;;;6194989;23;20009;-76
2021/05/12 05:29:10;;;;;;;0.00;0.00;;;15.30;99.90;;;;;;6220739;23;20055;-75
2021/05/12 05:31:35;;;;;;;0.00;0.00;;;15.50;99.90;;;;;;6220931;23;20454;-75
2021/05/12 05:34:01;;;;;;;0.10;0.10;;;15.60;99.90;;;;;;6193891;23;20339;-75
2021/05/12 05:36:27;;;;;;;0.00;0.00;;;15.80;99.90;;;;;;6221484;23;20054;-75
2021/05/12 05:38:53;;;;;;;0.00;0.00;;;16.00;99.90;;;;;;6221371;23;20442;-75
2021/05/12 05:41:18;;;;;;;0.00;0.00;;;16.20;99.90;;;;;;6221622;23;20009;-76
2021/05/12 05:43:44;;;;;;;0.00;0.00;;;16.40;99.90;;;;;;6220325;23;20000;-75
2021/05/12 05:46:13;;;;;;;0.10;0.10;;;16.60;99.90;;;;;;6221506;23;20000;-76
2021/05/12 05:48:39;;;;;;;0.00;0.00;;;16.70;99.90;;;;;;6220870;23;20113;-75
2021/05/12 05:51:05;;;;;;;0.00;0.00;;;16.80;99.90;;;;;;6221507;23;20005;-75
2021/05/12 05:53:30;;;;;;;0.00;0.00;;;16.90;99.90;;;;;;6221086;23;20008;-75
2021/05/12 05:55:56;;;;;;;0.00;0.00;;;16.90;99.90;;;;;;6221409;23;20350;-75
2021/05/12 05:58:21;;;;;;;0.00;0.00;;;17.10;99.90;;;;;;6220839;23;20009;-76
2021/05/12 06:00:47;;;;;;;0.00;0.00;;;17.00;99.90;;;;;;6221429;23;20040;-76
2021/05/12 06:03:13;;;;;;;0.00;0.00;;;17.00;99.90;;;;;;6221005;23;20083;-76
2021/05/12 06:05:45;;;;;;;0.10;0.10;;;17.00;99.90;;;;;;6221512;23;20015;-76
2021/05/12 06:08:10;;;;;;;0.00;0.00;;;17.00;99.90;;;;;;6221040;23;20454;-76
2021/05/12 06:10:36;;;;;;;0.00;0.00;;;16.90;99.90;;;;;;6221268;23;20001;-76
2021/05/12 06:13:02;;;;;;;0.00;0.00;;;16.90;99.90;;;;;;6220663;23;20374;-76
2021/05/12 06:15:27;;;;;;;0.00;0.00;;;16.90;99.90;;;;;;6221452;23;20493;-76
2021/05/12 06:17:53;;;;;;;0.00;0.00;;;17.00;99.90;;;;;;6194186;23;20141;-76
2021/05/12 06:20:19;;;;;;;0.00;0.00;;;17.10;99.90;;;;;;6221281;23;20462;-76
2021/05/12 06:22:44;;;;;;;0.03;0.03;;;17.10;99.90;;;;;;6228087;23;20050;-76
2021/05/12 06:25:12;;;;;;;0.00;0.00;;;17.20;99.90;;;;;;6217405;23;20036;-76
2021/05/12 06:27:38;;;;;;;0.00;0.00;;;17.30;99.90;;;;;;6244898;23;20445;-75
2021/05/12 06:30:05;;;;;;;0.00;0.00;;;17.40;99.90;;;;;;6243893;23;20011;-75
2021/05/12 06:32:31;;;;;;;0.10;0.10;;;17.50;99.90;;;;;;6244642;23;20004;-76
2021/05/12 06:34:57;;;;;;;0.00;0.00;;;17.80;99.90;;;;;;6244346;23;20496;-77
2021/05/12 06:37:22;;;;;;;0.10;0.10;;;18.00;99.90;;;;;;6244877;22;20476;-77
2021/05/12 06:39:50;;;;;;;0.00;0.00;;;18.10;99.90;;;;;;6244310;22;20005;-77
2021/05/12 06:42:16;;;;;;;0.00;0.00;;;18.10;99.90;;;;;;6217819;23;20039;-76
2021/05/12 06:44:42;;;;;;;0.00;0.00;;;18.40;99.90;;;;;;6243735;23;20004;-77
2021/05/12 06:47:08;;;;;;;0.08;0.08;;;18.50;99.90;;;;;;6244705;23;20023;-76
2021/05/12 06:49:34;;;;;;;0.00;0.00;;;18.50;99.90;;;;;;6244236;22;20000;-76
2021/05/12 06:51:59;;;;;;;0.10;0.10;;;18.40;99.90;;;;;;6244459;22;20016;-77
2021/05/12 06:54:25;;;;;;;0.00;0.00;;;18.30;99.90;;;;;;6244181;22;20075;-76
2021/05/12 06:56:51;;;;;;;0.00;0.00;;;18.00;99.90;;;;;;6244536;23;19992;-77
2021/05/12 06:59:16;;;;;;;0.00;0.00;;;17.90;99.90;;;;;;6243665;23;20430;-77
2021/05/12 07:01:42;;;;;;;0.00;0.00;;;17.90;99.90;;;;;;6217824;23;20046;-76
2021/05/12 07:04:08;;;;;;;0.00;0.00;;;18.00;99.90;;;;;;6243885;23;20028;-77
2021/05/12 07:06:34;;;;;;;0.00;0.00;;;18.10;99.90;;;;;;6244597;23;20367;-76
2021/05/12 07:09:00;;;;;;;0.00;0.00;;;18.10;99.90;;;;;;6244044;22;20070;-77
2021/05/12 07:11:25;;;;;;;0.00;0.00;;;18.20;99.90;;;;;;6244265;23;19996;-77
2021/05/12 07:13:52;;;;;;;0.10;0.10;;;18.30;99.90;;;;;;6243594;23;20426;-76
2021/05/12 07:16:19;;;;;;;0.00;0.00;;;18.50;99.90;;;;;;6244506;22;20030;-77
2021/05/12 07:18:44;;;;;;;0.00;0.00;;;18.60;99.90;;;;;;6243885;22;20039;-77
2021/05/12 07:21:10;;;;;;;0.00;0.00;;;18.60;99.90;;;;;;6244409;23;20593;-76
2021/05/12 07:23:38;;;;;;;0.00;0.00;;;18.40;99.90;;;;;;6243737;22;20043;-76
2021/05/12 07:26:04;;;;;;;0.00;0.00;;;18.40;99.90;;;;;;6217094;23;20490;-76
2021/05/12 07:28:29;;;;;;;0.03;0.03;;;18.50;99.90;;;;;;6243595;23;20000;-77
2021/05/12 07:30:55;;;;;;;0.00;0.00;;;18.60;99.90;;;;;;6244137;23;20023;-76
2021/05/12 07:33:21;;;;;;;0.10;0.10;;;18.60;99.90;;;;;;6243405;22;20517;-77
2021/05/12 07:35:47;;;;;;;0.00;0.00;;;18.80;99.90;;;;;;6216867;23;20000;-77
2021/05/12 07:38:13;;;;;;;0.00;0.00;;;18.80;99.90;;;;;;6243543;22;20035;-77
2021/05/12 07:40:39;;;;;;;0.00;0.00;;;18.80;99.90;;;;;;6244147;23;20431;-77
2021/05/12 07:43:10;;;;;;;0.00;0.00;;;18.60;99.90;;;;;;6243755;22;20024;-76
2021/05/12 07:45:37;;;;;;;0.00;0.00;;;18.70;99.90;;;;;;6244028;23;20034;-77
2021/05/12 07:48:07;;;;;;;0.05;0.05;;;18.80;99.90;;;;;;6243731;22;20023;-77
2021/05/12 07:50:33;;;;;;;0.00;0.00;;;19.00;99.90;;;;;;6243905;22;20000;-77
2021/05/12 07:53:04;;;;;;;0.00;0.00;;;19.30;99.90;;;;;;6243778;23;20115;-77
2021/05/12 07:55:30;;;;;;;0.10;0.10;;;19.40;99.90;;;;;;6244044;23;20227;-76
2021/05/12 07:57:56;;;;;;;0.00;0.00;;;19.40;99.90;;;;;;6243492;23;20004;-77
2021/05/12 08:00:22;;;;;;;0.00;0.00;;;19.30;99.90;;;;;;6243622;22;20004;-76
2021/05/12 08:02:48;;;;;;;0.00;0.00;;;19.10;99.90;;;;;;6243754;23;20035;-77
2021/05/12 08:05:14;;;;;;;0.00;0.00;;;18.80;99.90;;;;;;6243420;23;20490;-75
2021/05/12 08:07:41;;;;;;;0.00;0.00;;;18.50;99.90;;;;;;6243833;23;20031;-74
2021/05/12 08:10:07;;;;;;;0.10;0.10;;;18.20;99.90;;;;;;6243365;23;20413;-76
2021/05/12 08:12:33;;;;;;;0.00;0.00;;;18.00;99.90;;;;;;6243719;22;20019;-76
2021/05/12 08:14:59;;;;;;;0.00;0.00;;;18.00;99.90;;;;;;6242883;22;20033;-76
2021/05/12 08:17:25;;;;;;;0.10;0.10;;;17.90;99.90;;;;;;6243992;23;20004;-76
2021/05/12 08:19:51;;;;;;;0.00;0.00;;;17.80;99.90;;;;;;6216250;23;20151;-76
2021/05/12 08:22:17;;;;;;;0.00;0.00;;;17.80;99.90;;;;;;6243588;23;20003;-77
2021/05/12 08:24:42;;;;;;;0.00;0.00;;;17.90;99.90;;;;;;6243097;23;20019;-77
2021/05/12 08:27:08;;;;;;;0.00;0.00;;;17.90;99.90;;;;;;6216770;23;19996;-77
2021/05/12 08:29:40;;;;;;;0.00;0.00;;;18.00;99.90;;;;;;6243055;22;20079;-77
2021/05/12 08:32:07;;;;;;;0.10;0.10;;;18.30;99.90;;;;;;6216903;23;20099;-77
2021/05/12 08:34:33;;;;;;;0.00;0.00;;;18.80;99.90;;;;;;6243010;22;20061;-77
2021/05/12 08:37:00;;;;;;;0.10;0.10;;;19.00;99.90;;;;;;6243545;23;20000;-77
2021/05/12 08:39:26;;;;;;;0.00;0.00;;;19.20;99.90;;;;;;6243058;22;20427;-77
2021/05/12 08:41:52;;;;;;;0.10;0.10;;;19.40;99.90;;;;;;6243670;23;20010;-78
2021/05/12 08:44:20;;;;;;;0.00;0.00;;;19.80;99.90;;;;;;6242778;23;20023;-78
2021/05/12 08:46:48;;;;;;;0.10;0.10;;;20.10;99.90;;;;;;6243452;23;20074;-79
2021/05/12 08:49:16;;;;;;;0.10;0.10;;;20.40;99.90;;;;;;6242945;22;20004;-76
2021/05/12 08:51:42;;;;;;;0.10;0.10;;;20.90;99.90;;;;;;6243352;22;20445;-78
2021/05/12 08:54:08;;;;;;;0.10;0.10;;;21.20;99.90;;;;;;6242925;23;20335;-78
2021/05/12 08:56:34;;;;;;;0.10;0.10;;;21.20;99.90;;;;;;6216809;23;20034;-78
2021/05/12 08:59:01;;;;;;;0.08;0.08;;;21.10;99.90;;;;;;6242789;23;20054;-77
2021/05/12 09:01:28;;;;;;;0.10;0.10;;;20.80;99.90;;;;;;6243226;23;20224;-78
2021/05/12 09:03:54;;;;;;;0.10;0.10;;;20.50;99.90;;;;;;6242839;23;20004;-78
2021/05/12 09:06:20;;;;;;;0.10;0.10;;;20.10;99.90;;;;;;6243553;23;20259;-78
2021/05/12 09:08:47;;;;;;;0.00;0.00;;;19.50;99.90;;;;;;6243048;22;20000;-78
2021/05/12 09:11:14;;;;;;;0.00;0.00;;;19.10;99.90;;;;;;6243477;23;20071;-77
2021/05/12 09:13:49;;;;;;;0.08;0.08;;;18.70;99.90;;;;;;6242346;22;20089;-78
2021/05/12 09:16:27;;;;;;;0.10;0.10;;;18.20;99.90;;;;;;6243590;22;20000;-78
2021/05/12 09:18:59;;;;;;;0.10;0.10;;;17.70;99.90;;;;;;6242624;23;20004;-78
2021/05/12 09:21:42;;;;;;;0.00;0.00;;;17.50;99.90;;;;;;6243401;23;20004;-78
2021/05/12 09:24:29;;;;;;;0.10;0.10;;;17.40;99.90;;;;;;6242604;22;20012;-77
2021/05/12 09:27:00;;;;;;;0.00;0.00;;;17.10;99.90;;;;;;6243455;23;20000;-79
2021/05/12 09:29:29;;;;;;;0.10;0.10;;;16.90;99.90;;;;;;6242649;23;19996;-78
2021/05/12 09:32:07;;;;;;;0.00;0.00;;;16.70;99.90;;;;;;6243514;23;20006;-79
2021/05/12 09:34:58;;;;;;;0.00;0.00;;;16.50;99.90;;;;;;6215698;23;20552;-79
2021/05/12 09:37:39;;;;;;;0.10;0.10;;;16.30;99.90;;;;;;6225211;23;20242;-80
2021/05/12 09:40:09;;;;;;;0.00;0.00;;;16.20;99.90;;;;;;6242580;23;20004;-80
2021/05/12 09:42:37;;;;;;;0.10;0.10;;;16.30;99.90;;;;;;6216567;23;20027;-79
2021/05/12 09:45:10;;;;;;;0.10;0.10;;;16.30;99.90;;;;;;6215759;23;20011;-79
2021/05/12 09:47:37;;;;;;;0.00;0.00;;;16.40;99.90;;;;;;6243369;23;19992;-78
2021/05/12 09:50:12;;;;;;;0.10;0.10;;;16.40;99.90;;;;;;6242943;22;20082;-79
2021/05/12 09:52:38;;;;;;;0.00;0.00;;;16.50;99.90;;;;;;6216284;23;20004;-79
2021/05/12 09:55:06;;;;;;;0.00;0.00;;;16.50;99.90;;;;;;6242830;23;20010;-78
2021/05/12 09:57:32;;;;;;;0.00;0.00;;;16.40;99.90;;;;;;6243234;23;20011;-79
2021/05/12 09:59:58;;;;;;;0.00;0.00;;;16.60;99.90;;;;;;6243870;23;20004;-78
2021/05/12 10:02:24;;;;;;;0.00;0.00;;;16.60;99.90;;;;;;6245338;23;20354;-77
2021/05/12 10:04:51;;;;;;;0.00;0.00;;;16.60;99.90;;;;;;6244421;22;20008;-79
2021/05/12 10:07:19;;;;;;;0.05;0.05;;;16.60;99.90;;;;;;6245139;22;19996;-79
2021/05/12 10:09:53;;;;;;;0.00;0.00;;;16.60;99.90;;;;;;6244789;23;20435;-78
2021/05/12 10:12:21;;;;;;;0.10;0.10;;;16.50;99.90;;;;;;6218259;23;20012;-77
2021/05/12 10:14:58;;;;;;;0.00;0.00;;;16.40;99.90;;;;;;6244183;22;20019;-77
2021/05/12 10:17:28;;;;;;;0.00;0.00;;;16.30;99.90;;;;;;6218325;23;20378;-78
2021/05/12 10:19:56;;;;;;;0.00;0.00;;;16.30;99.90;;;;;;6244380;23;20259;-77
2021/05/12 10:22:22;;;;;;;0.00;0.00;;;16.20;99.90;;;;;;6245153;23;20106;-78
2021/05/12 10:24:49;;;;;;;0.00;0.00;;;16.20;99.90;;;;;;6244169;22;20383;-77
2021/05/12 10:27:17;;;;;;;;;;;16.20;99.90;;;;;;6245171;22;20046;-77
2021/05/12 10:29:47;;;;;;;0.00;0.00;;;16.20;99.90;;;;;;6244206;23;19927;-78
2021/05/12 10:32:20;;;;;;;0.03;0.03;;;16.20;99.90;;;;;;6244865;23;20000;-78
2021/05/12 10:34:48;;;;;;;0.00;0.00;;;16.20;99.90;;;;;;6244408;23;20477;-78
2021/05/12 10:37:22;;;;;;;0.00;0.00;;;16.30;99.90;;;;;;6218116;23;20031;-78
2021/05/12 10:39:52;;;;;;;0.00;0.00;;;16.30;99.90;;;;;;6217347;23;20008;-77
2021/05/12 10:43:32;;;;;;;0.00;0.00;;;16.40;99.90;;;;;;6244972;23;20000;-77
2021/05/12 10:48:34;;;;;;;0.00;0.00;;;16.60;99.90;;;;;;6244326;23;20103;-78
2021/05/12 10:51:30;;;;;;;0.00;0.00;;;16.50;99.90;;;;;;6244638;23;20000;-78
2021/05/12 10:54:01;;;;;;;0.00;0.00;;;16.50;99.90;;;;;;6230663;23;20012;-78
2021/05/12 10:56:41;;;;;;;0.00;0.00;;;16.50;99.90;;;;;;6244675;23;20046;-77
2021/05/12 10:59:12;;;;;;;0.00;0.00;;;16.30;99.90;;;;;;6243764;23;20007;-78
2021/05/12 11:01:41;;;;;;;0.00;0.00;;;16.20;99.90;;;;;;6217772;23;20239;-79
2021/05/12 11:04:22;;;;;;;0.00;0.00;;;16.20;99.90;;;;;;6243784;22;20004;-78
2021/05/12 11:06:51;;;;;;;0.00;0.00;;;16.10;99.90;;;;;;6244782;23;20031;-78
2021/05/12 11:09:18;;;;;;;0.00;0.00;;;16.20;99.90;;;;;;6217176;23;20027;-78
2021/05/12 11:11:44;;;;;;;0.00;0.00;;;16.20;99.90;;;;;;6244311;23;20000;-78
2021/05/12 11:14:28;;;;;;;0.00;0.00;;;16.20;99.90;;;;;;6243661;22;20111;-78
2021/05/12 11:17:07;;;;;;;0.05;0.05;;;16.20;99.90;;;;;;6217680;23;20000;-79
2021/05/12 11:19:42;;;;;;;0.08;0.08;;;16.30;99.90;;;;;;6243642;22;20000;-77
2021/05/12 11:33:33;;;;;;;0.10;0.10;;;17.20;99.90;;;;;;6240157;23;20591;-75
2021/05/12 11:36:10;;;;;;;0.00;0.00;;;17.60;99.90;;;;;;6240998;22;20563;-76
2021/05/12 11:38:37;;;;;;;0.00;0.00;;;17.80;99.90;;;;;;6241019;23;20247;-77
2021/05/12 11:41:18;;;;;;;0.00;0.00;;;18.00;99.90;;;;;;6214238;23;20012;-84
2021/05/12 11:43:50;;;;;;;0.00;0.00;;;18.10;99.90;;;;;;6240330;22;20011;-77
2021/05/12 11:46:39;;;;;;;0.00;0.00;;;18.10;99.90;;;;;;6241107;22;20003;-79
2021/05/12 11:49:11;;;;;;;0.00;0.00;;;18.20;99.90;;;;;;6213630;22;20016;-86
2021/05/12 11:51:41;;;;;;;0.00;0.00;;;18.20;99.90;;;;;;6214189;22;20378;-82
2021/05/12 11:54:17;;;;;;;0.00;0.00;;;18.20;99.90;;;;;;6241576;22;20019;-78
2021/05/12 11:56:44;;;;;;;0.10;0.10;;;17.90;99.90;;;;;;6241011;22;20007;-82
2021/05/12 11:59:14;;;;;;;0.10;0.10;;;17.80;99.90;;;;;;6240033;23;20040;-79
2021/05/12 12:01:44;;;;;;;0.00;0.00;;;17.70;99.90;;;;;;6240854;23;19996;-78
2021/05/12 12:06:42;;;;;;;0.00;0.00;;;17.70;99.90;;;;;;6243215;23;20015;-79
2021/05/12 12:09:09;;;;;;;0.10;0.10;;;17.60;99.90;;;;;;6240515;22;20019;-82
2021/05/12 12:11:35;;;;;;;0.00;0.00;;;17.70;99.90;;;;;;6240279;23;20007;-80
2021/05/12 12:14:02;;;;;;;0.00;0.00;;;17.70;99.90;;;;;;6239917;22;20012;-80
2021/05/12 12:16:28;;;;;;;0.00;0.00;;;17.50;99.90;;;;;;6241120;23;20423;-84
2021/05/12 12:18:55;;;;;;;0.00;0.00;;;17.30;99.90;;;;;;6240428;22;20063;-82
2021/05/12 12:21:31;;;;;;;0.10;0.10;;;17.10;99.90;;;;;;6213776;23;20005;-83
2021/05/12 12:24:07;;;;;;;0.00;0.00;;;17.20;99.90;;;;;;6239869;22;20020;-83
2021/05/12 12:26:36;;;;;;;0.00;0.00;;;17.40;99.90;;;;;;6240756;22;20000;-82
2021/05/12 12:29:05;;;;;;;0.00;0.00;;;17.90;99.90;;;;;;6212938;23;20039;-84
2021/05/12 12:31:42;;;;;;;0.10;0.10;;;18.70;99.90;;;;;;6240854;22;20005;-86
2021/05/12 12:34:14;;;;;;;0.10;0.10;;;21.00;99.90;;;;;;6240970;23;20012;-85
2021/05/12 12:36:57;;;;;;;0.10;0.10;;;23.10;99.50;;;;;;6241024;23;20015;-83
2021/05/12 12:39:42;;;;;;;0.10;0.10;;;27.20;82.30;;;;;;6239788;22;20012;-86
2021/05/12 12:42:10;;;;;;;0.10;0.10;;;31.10;59.40;;;;;;6213367;22;20465;-84
2021/05/12 12:44:41;;;;;;;0.10;0.10;;;33.60;48.20;;;;;;6240859;22;20004;-84
2021/05/12 12:47:16;;;;;;;0.10;0.10;;;34.30;48.50;;;;;;6241141;23;20016;-82
2021/05/12 12:49:48;;;;;;;0.20;0.20;;;35.10;46.40;;;;;;6243089;22;20335;-84
2021/05/12 12:52:23;;;;;;;0.20;0.20;;;36.70;42.00;;;;;;6242175;23;20004;-84
2021/05/12 12:55:00;;;;;;;0.17;0.17;;;37.10;41.50;;;;;;6242447;22;20004;-89
2021/05/12 12:57:37;;;;;;;0.28;0.28;;;38.30;36.50;;;;;;6243543;22;20267;-87
2021/05/12 13:00:38;;;;;;;0.10;0.10;;;36.10;41.10;;;;;;6241408;22;20083;-87
2021/05/12 13:03:06;;;;;;;0.10;0.10;;;32.70;44.40;;;;;;6208583;23;20027;-83
2021/05/12 13:05:34;;;;;;;0.10;0.10;;;31.40;45.20;;;;;;6213969;23;20380;-83
2021/05/12 13:08:37;;;;;;;0.10;0.10;;;30.70;47.70;;;;;;6216661;23;20399;-94
2021/05/12 13:11:05;;;;;;;0.10;0.10;;;33.70;43.40;;;;;;6241726;23;20001;-86
2021/05/12 13:13:40;;;;;;;0.10;0.10;;;34.00;41.40;;;;;;6242541;23;20012;-85
2021/05/12 13:16:27;;;;;;;0.10;0.10;;;30.20;50.10;;;;;;6240739;23;20611;-80
2021/05/12 13:18:56;;;;;;;0.10;0.10;;;27.30;56.70;;;;;;6243143;22;20003;-79
2021/05/12 13:21:24;;;;;;;0.10;0.10;;;25.40;59.30;;;;;;6215363;23;20036;-80
2021/05/12 13:24:01;;;;;;;0.10;0.10;;;24.90;61.00;;;;;;6241324;22;20052;-79
2021/05/12 13:26:47;;;;;;;;;;;24.00;66.00;;;;;;6243401;22;20491;-80
2021/05/12 13:29:15;;;;;;;0.10;0.10;;;23.60;69.70;;;;;;6240739;22;19900;-80
2021/05/12 13:31:42;;;;;;;0.10;0.10;;;22.80;73.40;;;;;;6242988;23;20007;-81
2021/05/12 13:34:12;;;;;;;0.10;0.10;;;22.60;73.90;;;;;;6243172;22;19996;-80
2021/05/12 13:36:44;;;;;;;0.10;0.10;;;24.80;67.90;;;;;;6245314;22;20338;-79
2021/05/12 13:39:10;;;;;;;0.00;0.00;;;26.10;62.30;;;;;;6245330;22;20011;-82
2021/05/12 13:41:36;;;;;;;0.00;0.00;;;28.00;57.50;;;;;;6245404;22;20028;-80
2021/05/12 13:44:02;;;;;;;0.10;0.10;;;28.90;54.50;;;;;;6244243;23;20016;-79
2021/05/12 13:46:28;;;;;;;0.08;0.08;;;30.10;52.50;;;;;;6218585;23;20083;-80
2021/05/12 13:48:54;;;;;;;0.00;0.00;;;29.80;50.70;;;;;;6245038;22;20394;-82
2021/05/12 13:51:26;;;;;;;0.10;0.10;;;27.50;53.70;;;;;;6245430;22;20079;-79
2021/05/12 14:04:05;;;;;;;0.10;0.10;;;19.20;92.50;;;;;;6244460;23;20009;-81
2021/05/12 14:06:32;;;;;;;0.10;0.10;;;19.20;91.30;;;;;;6245161;22;19996;-81